Terminal Aerodrome Forecast
Issued by NWS Billings, MT

Home | Current Version | Previous Version | Text Only | Print | Product List | Glossary On
Versions: 1 2 3 4 5 6 7 8 9 10 11 12 13 14 15 16 17 18 19 20 21 22 23 24
000
FTUS45 KBYZ 030520
TAFMLS
TAF
KMLS 030520Z 0306/0406 35015G22KT P6SM VCSH SCT040 BKN120
     FM030800 35020G35KT 3SM -SN BLSN SCT008 BKN020 OVC040
     FM031500 32015G22KT P6SM VCSH SCT030 OVC050
     FM040000 32015G22KT 5SM -SN SCT030 OVC050=

USA.gov is the U.S. government's official web portal to all federal, state and local government web resources and services.